• Join FlightAware (Why Join?)
  • Login
  • US Flag 
06:10PM EST


 

Airport Tracker/Info


-or-


 

Live Flight TrackerFlight Track Log ✈ CPA91 ✈ 04-Apr-2014 ✈ KATL - PANC

Flight Track Log - Related Links

Times and Time Zones

All times are in EDT time to prevent confusion due to time zone crossing. See the CPA91 flight status page for this flight to view local times or setup timezone preferences in your user account.

Time Position Orientation Groundspeed Altitude Reporting Facility
EDT Latitude Longitude Course Direction KTS MPH feet Rate Location/Type
05:01PM 33.6333 -84.4833 North 170 196 2,500  Level Atlanta TRACON
05:02PM 33.6500 -84.5333 292° West 228 262 3,300 1,550 Climbing Atlanta TRACON
05:03PM 33.7167 -84.5833 328° Northwest 283 326 5,600 2,238 Climbing Atlanta TRACON
05:04PM 33.8000 -84.5833 360° North 293 337 8,000 1,872 Climbing Atlanta TRACON
05:05PM 33.9119 -84.5894 357° North 293 337 10,000 1,106 Climbing Atlanta Center
05:06PM 33.9953 -84.6175 344° North 293 337 10,600 1,150 Climbing Atlanta Center
05:07PM 34.2264 -84.7000 North  Level FlightAware Approximate
05:07PM 34.0828 -84.6508 342° North 320 368 12,300  Level Atlanta Center
05:08PM 34.1725 -84.6842 343° North 345 397 13,900 2,300 Climbing Atlanta Center
05:09PM 34.2767 -84.7200 344° North 376 433 16,900 2,400 Climbing Atlanta Center
05:10PM 34.3847 -84.7711 339° North 398 458 18,700 1,960 Climbing Atlanta Center
05:16PM 35.1069 -85.1013 320° Northwest 476 548 30,100 1,989 Climbing FlightAware ADS-B (KMDQ)
05:16PM 35.1532 -85.1553 309° West 461 531 30,800 1,645 Climbing FlightAware ADS-B (KMDQ)
05:17PM 35.2068 -85.2370 308° West 463 533 31,800 840 Climbing FlightAware ADS-B (KMDQ)
05:18PM 35.2836 -85.3551 309° West 468 539 32,200 1,032 Climbing FlightAware ADS-B (KMDQ)
05:19PM 35.3177 -85.4072 309° West 463 533 33,400 1,333 Climbing FlightAware ADS-B (KMDQ)
05:19PM 35.3802 -85.5030 309° West 459 528 34,000 434 Climbing FlightAware ADS-B (KMDQ)
05:20PM 35.4399 -85.5951 308° West 458 527 34,000  Level FlightAware ADS-B (KMDQ)
05:21PM 35.4989 -85.6855 309° West 455 524 34,000  Level FlightAware ADS-B (KMDQ)
05:21PM 35.5499 -85.7641 308° West 454 522 34,000  Level FlightAware ADS-B (KMDQ)
05:22PM 35.6038 -85.8476 308° West 455 524 34,000  Level FlightAware ADS-B (KMDQ)
05:23PM 35.6548 -85.9269 308° West 454 522 34,000  Level FlightAware ADS-B (KMDQ)
05:23PM 35.7079 -86.0096 308° West 450 518 34,000  Level FlightAware ADS-B (KMDQ)
05:24PM 35.7575 -86.0870 308° West 446 513 34,000  Level FlightAware ADS-B (KMDQ)
05:25PM 35.8064 -86.1634 308° West 442 509 34,000  Level FlightAware ADS-B (KMDQ)
05:26PM 35.8799 -86.2787 308° West 439 505 34,000  Level FlightAware ADS-B (KMDQ)
05:26PM 35.9267 -86.3524 308° West 438 504 34,000  Level FlightAware ADS-B (KMDQ)
05:27PM 35.9696 -86.4200 308° West 435 501 34,000  Level FlightAware ADS-B (KMDQ)
05:28PM 36.0327 -86.5196 308° West 433 498 34,000  Level FlightAware ADS-B (KMDQ)
05:28PM 36.0816 -86.5969 308° West 435 501 34,000  Level FlightAware ADS-B (KMDQ)
05:29PM 36.1290 -86.6710 310° West 438 504 34,000  Level FlightAware ADS-B (KMDQ)
05:30PM 36.1837 -86.7463 313° West 443 510 34,000  Level FlightAware ADS-B (KMDQ)
05:30PM 36.2408 -86.8218 313° West 445 512 34,000  Level FlightAware ADS-B (KMDQ)
05:31PM 36.2687 -86.8586 313° West 447 514 34,000  Level FlightAware ADS-B (EPWR / WRO)
05:32PM 36.3916 -87.0214 313° West 444 511 34,000  Level FlightAware ADS-B (EPWR / WRO)
05:33PM 36.4728 -87.1286 313° West 445 512 34,000  Level Kansas City Center
05:34PM 36.5475 -87.2292 313° West 440 506 34,000  Level Kansas City Center
05:35PM 36.6450 -87.3606 313° West 435 501 34,000  Level Kansas City Center
05:36PM 36.7269 -87.4700 313° West 435 501 34,000  Level Kansas City Center
05:38PM 36.8081 -87.5797 313° West 434 499 34,000  Level Kansas City Center
05:39PM 36.8906 -87.6900 313° West 434 499 34,000  Level Kansas City Center
05:40PM 36.9933 -87.8306 312° West 433 498 34,000  Level Memphis Center
05:41PM 37.0744 -87.9417 312° West 433 498 34,000  Level Memphis Center
05:42PM 37.1544 -88.0508 313° West 425 489 34,000  Level Memphis Center
05:43PM 37.2242 -88.1472 312° West 419 482 34,000  Level Memphis Center
05:44PM 37.3169 -88.2744 313° West 416 479 34,000  Level Memphis Center
05:45PM 37.3925 -88.3792 312° West 408 470 34,000  Level Memphis Center
05:46PM 37.4681 -88.4853 312° West 408 470 34,000  Level Memphis Center
05:47PM 37.5444 -88.5919 312° West 409 471 34,000  Level Memphis Center
05:48PM 37.6206 -88.6978 312° West 409 471 34,000  Level Memphis Center
05:49PM 37.6997 -88.8106 312° West 419 482 34,000  Level Kansas City Center
05:50PM 37.7775 -88.9175 313° West 420 483 34,000  Level Kansas City Center
05:51PM 37.8589 -89.0322 312° West 420 483 34,000  Level Kansas City Center
05:52PM 37.9356 -89.1436 311° West 420 483 34,000  Level Kansas City Center
05:53PM 38.0128 -89.2528 312° West 420 483 34,000  Level Kansas City Center
05:54PM 38.1058 -89.3858 312° West 420 483 34,000  Level Kansas City Center
05:55PM 38.1828 -89.4950 312° West 419 482 34,000  Level Kansas City Center
05:56PM 38.2592 -89.6050 312° West 419 482 34,000  Level Kansas City Center
05:57PM 38.3350 -89.7156 311° West 417 480 34,000  Level Kansas City Center
05:58PM 38.4092 -89.8219 312° West 417 480 34,000  Level Kansas City Center
05:59PM 38.5017 -89.9550 312° West 417 480 34,000  Level Kansas City Center
06:00PM 38.5794 -90.0689 311° West 417 480 34,000  Level Kansas City Center
06:01PM 38.6561 -90.1803 311° West 417 480 34,000  Level Kansas City Center
06:02PM 38.7322 -90.2908 311° West 417 480 34,000  Level Kansas City Center
06:03PM 38.8217 -90.4247 311° West 417 480 34,000  Level Kansas City Center
06:04PM 38.9011 -90.5367 312° West 418 481 34,000  Level Kansas City Center
06:05PM 38.9872 -90.6303 320° Northwest 439 505 34,000  Level Kansas City Center
06:08PM 39.1611 -90.8347 315° West 426 490 34,000  Level Kansas City Center
06:09PM 39.2653 -90.9583 317° Northwest 425 489 34,000  Level Kansas City Center
06:10PM 39.3522 -91.0606 318° Northwest 425 489 34,000  Level Kansas City Center
06:11PM 39.4392 -91.1636 318° Northwest 425 489 34,000  Level Kansas City Center
06:12PM 39.5244 -91.2667 317° Northwest 424 488 34,000  Level Kansas City Center
06:13PM 39.6117 -91.3722 317° Northwest 423 487 34,000  Level Kansas City Center
06:14PM 39.6972 -91.4750 317° Northwest 423 487 34,000  Level Kansas City Center
06:15PM 39.8011 -91.5994 317° Northwest 423 487 34,000  Level Kansas City Center
06:16PM 39.8861 -91.7036 317° Northwest 424 488 34,000  Level Kansas City Center
06:17PM 39.9739 -91.8083 318° Northwest 424 488 34,000  Level Kansas City Center
06:18PM 40.0600 -91.9136 317° Northwest 425 489 34,000  Level Kansas City Center
06:24PM 40.5846 -92.5616 316° Northwest 430 495 34,000  Level FlightAware ADS-B
06:26PM 40.7588 -92.7801 316° Northwest 429 494 34,000  Level FlightAware ADS-B
06:27PM 40.8387 -92.8810 316° Northwest 430 495 34,000  Level FlightAware ADS-B
06:30PM 41.0826 -93.1912 316° Northwest 431 496 34,000  Level FlightAware ADS-B
06:30PM 41.1248 -93.2451 316° Northwest 432 497 34,000  Level FlightAware ADS-B
06:36PM 41.6010 -93.8688 315° West 434 499 34,000  Level FlightAware ADS-B
06:36PM 41.6503 -93.9355 315° West 433 498 34,000  Level FlightAware ADS-B
06:37PM 41.7066 -94.0117 315° West 432 497 34,000  Level FlightAware ADS-B
06:38PM 41.7864 -94.1203 314° West 433 498 34,000  Level FlightAware ADS-B
06:38PM 41.8412 -94.1951 314° West 432 497 34,000  Level FlightAware ADS-B
06:39PM 41.9041 -94.2811 314° West 432 497 34,000  Level FlightAware ADS-B
06:40PM 41.9391 -94.3293 314° West 432 497 34,000  Level FlightAware ADS-B
06:40PM 41.9808 -94.3866 314° West 431 496 34,000  Level FlightAware ADS-B
06:41PM 42.0456 -94.4759 314° West 432 497 34,000  Level FlightAware ADS-B
06:42PM 42.1133 -94.5696 314° West 433 498 34,000  Level FlightAware ADS-B
06:43PM 42.1719 -94.6509 314° West 433 498 34,000  Level FlightAware ADS-B
06:43PM 42.2511 -94.7610 314° West 434 499 34,000  Level FlightAware ADS-B
06:44PM 42.3233 -94.8618 314° West 434 499 34,000  Level FlightAware ADS-B
06:46PM 42.4250 -95.0036 314° West 433 498 34,000 129 Level Minneapolis Center
06:47PM 42.5072 -95.1206 314° West 433 498 34,300 919 Climbing Minneapolis Center
06:48PM 42.5928 -95.2417 314° West 433 498 35,900 823 Climbing Minneapolis Center
06:49PM 42.6725 -95.3544 314° West 433 498 36,000 48 Climbing Minneapolis Center
06:50PM 42.7517 -95.4686 313° West 423 487 36,000  Level Minneapolis Center
06:51PM 42.8331 -95.5847 314° West 422 486 36,000  Level Minneapolis Center
06:52PM 42.9300 -95.7233 314° West 422 486 36,000  Level Minneapolis Center
06:53PM 43.0108 -95.8411 313° West 422 486 36,000  Level Minneapolis Center
06:54PM 43.0917 -95.9575 314° West 423 487 36,000  Level Minneapolis Center
06:55PM 43.1728 -96.0758 313° West 423 487 36,000  Level Minneapolis Center
06:56PM 43.2536 -96.1950 313° West 424 488 36,000  Level Minneapolis Center
06:57PM 43.3500 -96.3375 313° West 426 490 36,000  Level Minneapolis Center
06:58PM 43.4303 -96.4561 313° West 425 489 36,000  Level Minneapolis Center
06:59PM 43.5119 -96.5747 314° West 425 489 36,000  Level Minneapolis Center
07:00PM 43.5919 -96.6942 313° West 425 489 36,000  Level Minneapolis Center
07:01PM 43.6783 -96.8075 317° Northwest 426 490 36,000  Level Minneapolis Center
07:02PM 43.7978 -96.9092 328° Northwest 431 496 36,000  Level Minneapolis Center
07:03PM 43.9006 -96.9989 328° Northwest 434 499 36,000  Level Minneapolis Center
07:04PM 44.0022 -97.0881 328° Northwest 435 501 36,000  Level Minneapolis Center
07:05PM 44.1036 -97.1781 327° Northwest 434 499 36,000  Level Minneapolis Center
07:06PM 44.2050 -97.2700 327° Northwest 434 499 36,000  Level Minneapolis Center
07:07PM 44.3292 -97.3764 329° Northwest 436 502 36,000  Level Minneapolis Center
07:08PM 44.4350 -97.4603 330° Northwest 437 503 36,000  Level Minneapolis Center
07:09PM 44.5506 -97.5214 339° North 443 510 36,000  Level Minneapolis Center
07:10PM 44.6656 -97.5844 339° North 443 510 36,000  Level Minneapolis Center
07:11PM 44.7800 -97.6475 339° North 443 510 36,000  Level Minneapolis Center
07:12PM 44.8953 -97.7097 339° North 444 511 36,000  Level Minneapolis Center
07:13PM 45.0242 -97.8056 332° Northwest 442 509 36,000  Level Minneapolis Center
07:15PM 45.1186 -97.9103 322° Northwest 436 502 36,000  Level Minneapolis Center
07:16PM 45.2128 -98.0128 323° Northwest 432 497 36,000  Level Minneapolis Center
07:17PM 45.3275 -98.0756 339° North 438 504 36,000  Level Minneapolis Center
07:18PM 45.4431 -98.1375 339° North 445 512 36,000  Level Minneapolis Center
07:19PM 45.5814 -98.2094 340° North 444 511 36,000  Level Minneapolis Center
07:20PM 45.6964 -98.2711 339° North 444 511 36,000  Level Minneapolis Center
07:21PM 45.8119 -98.3311 340° North 444 511 36,000  Level Minneapolis Center
07:22PM 45.9283 -98.3942 339° North 444 511 36,000  Level Minneapolis Center
07:23PM 46.0281 -98.4892 327° Northwest 442 509 36,000  Level Minneapolis Center
07:24PM 46.1133 -98.6094 316° Northwest 432 497 36,000 -48 Level Minneapolis Center
07:25PM 46.1975 -98.7306 315° West 431 496 35,900  Descending Minneapolis Center
07:26PM 46.2986 -98.8733 316° Northwest 429 494 36,000 48 Climbing Minneapolis Center
07:27PM 46.3831 -98.9947 315° West 429 494 36,000  Level Minneapolis Center
07:28PM 46.4675 -99.1169 315° West 429 494 36,000 -48 Level Minneapolis Center
07:29PM 46.5525 -99.2400 315° West 429 494 35,900  Descending Minneapolis Center
07:30PM 46.6375 -99.3647 315° West 430 495 36,000 48 Climbing Minneapolis Center
07:31PM 46.7214 -99.4864 315° West 428 493 36,000  Level Minneapolis Center
07:32PM 46.8061 -99.6117 315° West 428 493 36,000  Level Minneapolis Center
07:33PM 46.9067 -99.7597 315° West 429 494 36,000  Level Minneapolis Center
07:34PM 46.9906 -99.8847 315° West 429 494 36,000  Level Minneapolis Center
07:35PM 47.0744 -100.0094 315° West 429 494 36,000 -48 Level Minneapolis Center
07:36PM 47.1583 -100.1369 314° West 429 494 35,900  Descending Minneapolis Center
07:37PM 47.2419 -100.2617 315° West 429 494 36,000 48 Climbing Minneapolis Center
07:38PM 47.3247 -100.3878 314° West 430 495 36,000  Level Minneapolis Center
07:39PM 47.4256 -100.5414 314° West 432 497 36,000  Level Minneapolis Center
07:40PM 47.5100 -100.6703 314° West 433 498 36,000  Level Minneapolis Center
07:41PM 47.5964 -100.7978 315° West 436 502 36,000  Level Minneapolis Center
07:42PM 47.6758 -100.9250 313° West 431 496 36,000  Level Minneapolis Center
07:43PM 47.7586 -101.0600 312° West 429 494 36,000 -48 Level Minneapolis Center
07:44PM 47.8400 -101.1883 313° West 430 495 35,900  Descending Minneapolis Center
07:45PM 47.9219 -101.3178 313° West 430 495 36,000  Climbing Minneapolis Center
07:47PM 48.0039 -101.4494 313° West 430 495 35,900  Descending Minneapolis Center
07:48PM 48.1031 -101.6058 314° West 431 496 36,000 49 Climbing Minneapolis Center
07:49PM 48.1844 -101.7381 313° West 431 496 36,000 -48 Level Minneapolis Center
07:50PM 48.2667 -101.8700 313° West 432 497 35,900  Descending Minneapolis Center
07:51PM 48.3519 -102.0047 314° West 438 504 36,000  Climbing Minneapolis Center
07:52PM 48.4369 -102.1419 313° West 444 511 35,900 -48 Descending Minneapolis Center
07:53PM 48.5364 -102.3025 313° West 444 511 35,900 48 Level Minneapolis Center
07:54PM 48.6178 -102.4367 313° West 444 511 36,000 48 Climbing Minneapolis Center
07:55PM 48.6983 -102.5711 312° West 441 507 36,000 -48 Level Minneapolis Center
07:56PM 48.7769 -102.7000 313° West 432 497 35,900 -49 Descending Minneapolis Center
07:57PM 48.8569 -102.8336 312° West 430 495 35,900  Level Minneapolis Center
07:58PM 48.9383 -102.9711 312° West 432 497 35,900 49 Level Minneapolis Center
07:59PM 49.0167 -103.1333 306° West 430 495 36,000 50 Climbing Winnipeg Center
08:00PM 49.1000 -103.2833 310° West 430 495 36,000  Level Winnipeg Center
08:01PM 49.1833 -103.4000 318° Northwest 430 495 36,000  Level Winnipeg Center
08:02PM 49.2500 -103.5500 304° West 440 506 36,000  Level Winnipeg Center
08:03PM 49.3333 -103.7000 310° West 440 506 36,000  Level Winnipeg Center
08:04PM 49.4167 -103.8333 314° West 440 506 36,000  Level Winnipeg Center
08:05PM 49.5000 -103.9833 311° West 440 506 36,000  Level Winnipeg Center
08:06PM 49.5667 -104.1000 311° West 440 506 36,000  Level Winnipeg Center
08:07PM 49.6667 -104.2667 313° West 440 506 36,000  Level Winnipeg Center
08:08PM 49.7333 -104.4000 308° West 440 506 36,000  Level Winnipeg Center
08:09PM 49.8167 -104.5500 311° West 440 506 36,000  Level Winnipeg Center
08:16PM 50.4000 -105.5667 310° West 420 483 36,000  Level Edmonton Center
08:17PM 50.4667 -105.7000 308° West 430 495 36,000  Level Edmonton Center
08:18PM 50.4962 -105.7695 311° West  Level FlightAware Approximate
08:18PM 50.5500 -105.8667 308° West 430 495 36,000  Level Edmonton Center
08:19PM 50.5740 -105.9126 311° West  Level FlightAware Approximate
08:19PM 50.6333 -106.0000 315° West 430 495 36,000  Level Edmonton Center
08:20PM 50.6517 -106.0561 311° West  Level FlightAware Approximate
08:20PM 50.6833 -106.1333 301° West 430 495 36,000  Level Edmonton Center
08:21PM 50.7292 -106.2001 310° West  Level FlightAware Approximate
08:21PM 50.7667 -106.3000 308° West 430 495 36,000  Level Edmonton Center
08:22PM 50.8500 -106.4333 315° West 430 495 36,000  Level Edmonton Center
08:23PM 50.9333 -106.6000 308° West 430 495 36,000  Level Edmonton Center
08:24PM 51.0000 -106.7333 308° West 430 495 36,000  Level Edmonton Center
08:25PM 51.0833 -106.9000 309° West 420 483 36,000  Level Edmonton Center
08:26PM 51.1500 -107.0333 309° West 420 483 36,000  Level Edmonton Center
08:27PM 51.2333 -107.1667 315° West 420 483 36,000  Level Edmonton Center
08:28PM 51.3167 -107.3333 309° West 420 483 36,000  Level Edmonton Center
08:29PM 51.3833 -107.4833 305° West 420 483 36,000  Level Edmonton Center
08:30PM 51.4667 -107.6167 315° West 420 483 36,000  Level Edmonton Center
08:31PM 51.5167 -107.7667 298° West 420 483 36,000  Level Edmonton Center
08:32PM 51.6000 -107.9333 309° West 420 483 36,000  Level Edmonton Center
08:33PM 51.6667 -108.0667 309° West 420 483 36,000  Level Edmonton Center
08:34PM 51.7500 -108.2167 312° West 410 472 36,000  Level Edmonton Center
08:35PM 51.8167 -108.3833 303° West 420 483 36,000  Level Edmonton Center
08:36PM 51.8667 -108.5000 305° West 420 483 36,000  Level Winnipeg Center
08:38PM 52.0333 -108.8167 311° West 420 483 36,000  Level Edmonton Center
08:39PM 52.0833 -108.9333 305° West 420 483 36,000  Level Winnipeg Center
08:40PM 52.1667 -109.1000 309° West 420 483 36,000  Level Winnipeg Center
08:41PM 52.2333 -109.2500 306° West 420 483 36,000  Level Winnipeg Center
08:42PM 52.3000 -109.4167 303° West 420 483 36,000  Level Winnipeg Center
08:43PM 52.3667 -109.5667 306° West 420 483 36,000  Level Winnipeg Center
08:44PM 52.4500 -109.7000 316° Northwest 420 483 36,000  Level Winnipeg Center
08:45PM 52.5167 -109.8667 303° West 420 483 36,000  Level Winnipeg Center
08:46PM 52.5833 -110.0167 306° West 420 483 36,000  Level Winnipeg Center
08:47PM 52.6500 -110.1833 303° West 420 483 36,000  Level Winnipeg Center
08:48PM 52.7333 -110.3500 310° West 420 483 36,000  Level Winnipeg Center
08:49PM 52.8000 -110.4833 310° West 420 483 36,000  Level Winnipeg Center
08:50PM 52.8667 -110.6333 306° West 420 483 36,000 400 Level Winnipeg Center
08:51PM 52.9333 -110.8000 304° West 430 495 36,800 700 Climbing Winnipeg Center
08:52PM 53.0000 -110.9667 304° West 430 495 37,400 600 Climbing Winnipeg Center
08:53PM 53.0667 -111.1333 304° West 440 506 38,000 300 Climbing Winnipeg Center
08:54PM 53.1333 -111.3000 304° West 430 495 38,000  Level Winnipeg Center
08:59PM 53.2003 -111.3372 305° West 424 488 38,000  Level FlightAware ADS-B
09:03PM 53.7965 -112.7627 305° West 429 494 38,000  Level FlightAware ADS-B
09:04PM 53.8341 -112.8554 304° West 428 493 38,000  Level FlightAware ADS-B
09:05PM 53.8839 -112.9788 304° West 427 491 38,000  Level FlightAware ADS-B
09:05PM 53.9343 -113.1042 304° West 426 490 38,000  Level FlightAware ADS-B
09:06PM 53.9774 -113.2117 304° West 425 489 38,000  Level FlightAware ADS-B (CYED)
09:07PM 54.0163 -113.3099 304° West 426 490 38,000  Level FlightAware ADS-B
09:07PM 54.0558 -113.4090 304° West 425 489 38,000  Level FlightAware ADS-B (CYED)
09:08PM 54.0993 -113.5190 304° West 422 486 38,000  Level FlightAware ADS-B
09:09PM 54.1476 -113.6418 304° West 423 487 38,000  Level FlightAware ADS-B
09:09PM 54.1943 -113.7613 304° West 423 487 38,000  Level FlightAware ADS-B
09:10PM 54.2242 -113.8380 304° West 422 486 38,000  Level FlightAware ADS-B
09:11PM 54.2915 -114.0111 304° West 424 488 38,000  Level FlightAware ADS-B
09:12PM 54.3362 -114.1271 303° West 422 486 38,000  Level FlightAware ADS-B
09:12PM 54.3873 -114.2602 303° West 421 484 38,000  Level FlightAware ADS-B
09:13PM 54.4214 -114.3495 303° West 421 484 38,000  Level FlightAware ADS-B
09:13PM 54.4523 -114.4308 303° West 420 483 38,000  Level FlightAware ADS-B
09:14PM 54.4847 -114.5162 303° West 420 483 38,000  Level FlightAware ADS-B
09:15PM 54.5303 -114.6368 303° West 420 483 38,000  Level FlightAware ADS-B
09:15PM 54.5779 -114.7633 303° West 419 482 38,000  Level FlightAware ADS-B
09:16PM 54.6083 -114.8447 303° West 419 482 38,000  Level FlightAware ADS-B
09:16PM 54.6438 -114.9397 303° West 418 481 38,000  Level FlightAware ADS-B
09:17PM 54.6742 -115.0216 303° West 419 482 38,000  Level FlightAware ADS-B
09:17PM 54.7040 -115.1020 303° West 419 482 38,000  Level FlightAware ADS-B
09:18PM 54.7378 -115.1933 302° West 418 481 38,000  Level FlightAware ADS-B
09:18PM 54.7689 -115.2780 303° West 417 480 38,000  Level FlightAware ADS-B
09:19PM 54.8130 -115.3984 302° West 417 480 38,000  Level FlightAware ADS-B
09:20PM 54.8445 -115.4846 302° West 418 481 38,000  Level FlightAware ADS-B
09:20PM 54.8768 -115.5735 302° West 418 481 38,000  Level FlightAware ADS-B
09:21PM 54.9068 -115.6563 302° West 419 482 38,000  Level FlightAware ADS-B
09:21PM 54.9167 -115.7833 302° West 410 472 38,000  Level Edmonton Center
09:22PM 54.9833 -115.9833 300° West 410 472 38,000  Level Edmonton Center
09:23PM 55.0333 -116.1500 298° West 420 483 38,000  Level Edmonton Center
09:24PM 55.1167 -116.3167 311° West 420 483 38,000  Level Edmonton Center
09:25PM 55.1667 -116.4833 298° West 420 483 38,000  Level Edmonton Center
09:26PM 55.2333 -116.6500 305° West 420 483 38,000  Level Edmonton Center
09:27PM 55.2833 -116.8500 294° West 420 483 38,000  Level Edmonton Center
09:28PM 55.3500 -117.0167 305° West 420 483 38,000  Level Edmonton Center
09:29PM 55.4167 -117.2000 303° West 420 483 38,000  Level Edmonton Center
09:30PM 55.4667 -117.3667 298° West 420 483 38,000  Level Edmonton Center
09:31PM 55.5333 -117.5667 301° West 420 483 38,000  Level Edmonton Center
09:32PM 55.5833 -117.7333 298° West 410 472 38,000  Level Edmonton Center
09:33PM 55.6333 -117.9000 298° West 410 472 38,000  Level Edmonton Center
09:34PM 55.7000 -118.0833 303° West 410 472 38,000  Level Edmonton Center
09:35PM 55.7667 -118.2500 305° West 410 472 38,000  Level Edmonton Center
09:36PM 55.8167 -118.4500 294° West 410 472 38,000  Level Edmonton Center
09:37PM 55.8833 -118.6333 303° West 410 472 38,000  Level Edmonton Center
09:38PM 55.9333 -118.8000 298° West 410 472 38,000  Level Edmonton Center
09:39PM 56.0000 -118.9833 303° West 410 472 38,000  Level Edmonton Center
09:40PM 56.0500 -119.1667 296° West 410 472 38,000  Level Edmonton Center
09:41PM 56.1000 -119.3333 298° West 420 483 38,000  Level Edmonton Center
09:42PM 56.1667 -119.5500 299° West 420 483 38,000  Level Edmonton Center
09:43PM 56.2167 -119.7167 298° West 420 483 38,000  Level Edmonton Center
09:44PM 56.2833 -119.9000 303° West 420 483 38,000  Level Edmonton Center
09:45PM 56.3333 -120.0833 296° West 420 483 38,000  Level Edmonton Center
09:46PM 56.3833 -120.2500 299° West 420 483 38,000  Level Edmonton Center
09:47PM 56.4500 -120.4667 299° West 420 483 38,000  Level Edmonton Center
09:48PM 56.5000 -120.6500 296° West 420 483 38,000  Level Edmonton Center
09:49PM 56.5500 -120.8333 296° West 420 483 38,000  Level Edmonton Center
09:50PM 56.6000 -121.0167 296° West 420 483 38,000  Level Edmonton Center
09:51PM 56.6667 -121.2167 301° West 420 483 38,000  Level Edmonton Center
09:52PM 56.7167 -121.4167 295° West 420 483 38,000  Level Edmonton Center
09:53PM 56.7667 -121.5833 299° West 420 483 38,000  Level Edmonton Center
09:54PM 56.8333 -121.7833 301° West 420 483 38,000  Level Edmonton Center
09:55PM 56.8833 -122.0000 293° West 420 483 38,000  Level Edmonton Center
09:56PM 56.9333 -122.1667 299° West 420 483 38,000  Level Edmonton Center
09:57PM 56.9833 -122.3667 295° West 420 483 38,000  Level Edmonton Center
09:58PM 57.0333 -122.5667 295° West 420 483 38,000  Level Edmonton Center
09:59PM 57.0833 -122.7667 295° West 420 483 38,000  Level Edmonton Center
10:00PM 57.1500 -122.9500 304° West 420 483 38,000  Level Edmonton Center
10:01PM 57.1833 -123.1333 289° West 420 483 38,000  Level Edmonton Center
10:02PM 57.2500 -123.3667 298° West 420 483 38,000  Level Edmonton Center
10:03PM 57.3000 -123.5500 297° West 420 483 38,000  Level Edmonton Center
10:04PM 57.3500 -123.7500 295° West 420 483 38,000  Level Edmonton Center
10:05PM 57.4000 -123.9333 297° West 430 495 38,000  Level Edmonton Center
10:06PM 57.4333 -124.1167 289° West 420 483 38,000  Level Edmonton Center
10:07PM 57.5000 -124.3333 300° West 420 483 38,000  Level Edmonton Center
10:08PM 57.5500 -124.5333 295° West 420 483 38,000  Level Edmonton Center
10:09PM 57.6000 -124.7333 295° West 420 483 38,000  Level Edmonton Center
10:10PM 57.6333 -124.9500 286° West 420 483 38,000  Level Edmonton Center
10:11PM 57.7000 -125.1500 302° West 430 495 38,000  Level Edmonton Center
10:52PM 59.4333 -133.8500 286° West 480 552 38,000  Level Anchorage Center
10:53PM 59.4424 -133.9072 287° West  Level FlightAware Approximate
10:53PM 59.4667 -134.0833 286° West 450 518 38,000  Level Anchorage Center
10:54PM 59.4762 -134.1302 287° West  Level FlightAware Approximate
10:54PM 59.5000 -134.3000 287° West 430 495 38,000  Level Anchorage Center
10:55PM 59.5097 -134.3537 287° West  Level FlightAware Approximate
10:55PM 59.5333 -134.5333 286° West 440 506 38,000  Level Anchorage Center
10:56PM 59.5428 -134.5777 286° West  Level FlightAware Approximate
10:56PM 59.5667 -134.7833 285° West 450 518 38,000  Level Anchorage Center
10:57PM 59.5755 -134.8020 286° West  Level FlightAware Approximate
10:57PM 59.6167 -135.0000 295° West 450 518 38,000  Level Anchorage Center
10:58PM 59.6500 -135.2500 285° West 450 518 38,000  Level Anchorage Center
10:59PM 59.6833 -135.4833 286° West 450 518 38,000  Level Anchorage Center
11:00PM 59.7000 -135.7167 278° West 450 518 38,000  Level Anchorage Center
11:01PM 59.7333 -135.9667 285° West 440 506 38,000  Level Anchorage Center
11:02PM 59.7667 -136.2000 286° West 450 518 38,000  Level Anchorage Center
11:03PM 59.8000 -136.4500 285° West 450 518 38,000  Level Anchorage Center
11:04PM 59.8333 -136.6833 286° West 460 529 38,000  Level Anchorage Center
11:05PM 59.8667 -136.9333 285° West 450 518 38,000  Level Anchorage Center
11:06PM 59.9000 -137.1667 286° West 450 518 38,000  Level Anchorage Center
11:07PM 59.9167 -137.4167 278° West 450 518 38,000  Level Anchorage Center
11:08PM 59.9500 -137.6667 285° West 450 518 38,000  Level Anchorage Center
11:09PM 59.9833 -137.9000 286° West 450 518 38,000  Level Anchorage Center
11:10PM 60.0167 -138.1500 285° West 460 529 38,000  Level Anchorage Center
11:11PM 60.0333 -138.4000 278° West 450 518 38,000  Level Anchorage Center
11:12PM 60.0667 -138.6500 285° West 450 518 38,000  Level Anchorage Center
11:13PM 60.0833 -138.9000 278° West 450 518 38,000  Level Anchorage Center
11:14PM 60.1167 -139.1500 285° West 450 518 38,000  Level Anchorage Center
11:15PM 60.1500 -139.4000 285° West 460 529 38,000  Level Anchorage Center
11:16PM 60.1667 -139.6500 278° West 460 529 38,000  Level Anchorage Center
11:17PM 60.2000 -139.9000 285° West 460 529 38,000  Level Anchorage Center
11:18PM 60.2167 -140.1500 278° West 460 529 38,000  Level Anchorage Center
11:19PM 60.2500 -140.4000 285° West 460 529 38,000  Level Anchorage Center
11:20PM 60.2667 -140.6500 278° West 460 529 38,000  Level Anchorage Center
11:21PM 60.3000 -140.9167 284° West 460 529 38,000  Level Anchorage Center
11:22PM 60.3167 -141.1667 278° West 460 529 38,000  Level Anchorage Center
11:23PM 60.3333 -141.4167 278° West 460 529 38,000  Level Anchorage Center
11:24PM 60.3667 -141.6833 284° West 460 529 38,000  Level Anchorage Center
11:25PM 60.3833 -141.9333 278° West 460 529 38,000  Level Anchorage Center
11:26PM 60.4000 -142.2000 277° West 460 529 38,000  Level Anchorage Center
11:27PM 60.4167 -142.4500 278° West 460 529 38,000  Level Anchorage Center
11:28PM 60.4500 -142.7000 285° West 460 529 38,000  Level Anchorage Center
11:29PM 60.4667 -142.9667 277° West 460 529 38,000  Level Anchorage Center
11:30PM 60.4833 -143.2000 278° West 460 529 38,000  Level Anchorage Center
11:31PM 60.5000 -143.4667 277° West 460 529 38,000  Level Anchorage Center
11:32PM 60.5167 -143.7167 278° West 460 529 38,000  Level Anchorage Center
11:38PM 60.6305 -145.3417 277° West 441 507 38,000  Level FlightAware ADS-B (PCV2)
11:38PM 60.6382 -145.4761 277° West 440 506 38,000  Level FlightAware ADS-B (PCV2)
11:39PM 60.6482 -145.6574 276° West 441 507 38,000  Level FlightAware ADS-B (PCV2)
11:40PM 60.6552 -145.7844 276° West 441 507 38,000  Level FlightAware ADS-B (PCV2)
11:40PM 60.6618 -145.9091 276° West 441 507 38,000 -400 Level FlightAware ADS-B (PCV2)
11:41PM 60.6683 -146.0327 276° West 442 509 37,600 -1,500 Descending FlightAware ADS-B (PCV2)
11:41PM 60.6732 -146.1568 274° West 451 519 36,500 -2,361 Descending FlightAware ADS-B (PCV2)
11:42PM 60.6778 -146.2831 274° West 455 524 35,200 -2,557 Descending FlightAware ADS-B (PCV2)
11:42PM 60.6826 -146.4179 274° West 453 521 33,900 -2,480 Descending FlightAware ADS-B (PCV2)
11:43PM 60.6893 -146.6028 274° West 451 519 32,100 -2,160 Descending FlightAware ADS-B (PCV2)
11:43PM 60.6938 -146.7313 274° West 441 507 31,200 -1,840 Descending FlightAware ADS-B (PCV2)
11:44PM 60.7001 -146.9160 274° West 427 491 29,800 -1,840 Descending FlightAware ADS-B (PCV2)
11:45PM 60.7041 -147.0365 274° West 418 481 28,900 -1,700 Descending FlightAware ADS-B (PCV2)
11:45PM 60.7078 -147.1507 274° West 411 473 28,100 -1,700 Descending FlightAware ADS-B (PCV2)
11:46PM 60.7114 -147.2675 274° West 405 466 27,200 -1,770 Descending FlightAware ADS-B (PCV2)
11:46PM 60.7148 -147.3801 274° West 401 461 26,300 -1,770 Descending FlightAware ADS-B (PCV2)
11:47PM 60.7182 -147.4965 273° West 397 457 25,400 -1,703 Descending FlightAware ADS-B (PCV2)
11:47PM 60.7227 -147.6566 273° West 391 450 24,200 -1,680 Descending FlightAware ADS-B (PCV2)
11:48PM 60.7257 -147.7692 273° West 388 447 23,300 -1,658 Descending FlightAware ADS-B (PCV2)
11:49PM 60.7301 -147.9339 273° West 383 441 22,100 -1,680 Descending FlightAware ADS-B (PCV2)
11:49PM 60.7327 -148.0393 273° West 381 438 21,200 -1,700 Descending FlightAware ADS-B (PCV2)
11:50PM 60.7357 -148.1479 275° West 379 436 20,400 -1,600 Descending FlightAware ADS-B (PCV2)
11:50PM 60.7444 -148.2532 284° West 381 438 19,600 -1,200 Descending FlightAware ADS-B (PCV2)
11:51PM 60.7597 -148.3587 287° West 375 432 19,200 -1,200 Descending FlightAware ADS-B (PCV2)
11:51PM 60.7743 -148.4565 287° West 376 433 18,400 -1,600 Descending FlightAware ADS-B (PCV2)
11:52PM 60.7894 -148.5591 287° West 376 433 17,600 -1,700 Descending FlightAware ADS-B (PCV2)
11:52PM 60.8042 -148.6587 287° West 373 429 16,700 -1,672 Descending FlightAware ADS-B (PCV2)
11:53PM 60.8200 -148.7673 287° West 371 427 15,900 -1,569 Descending FlightAware ADS-B (PCV2)
11:53PM 60.8364 -148.8805 286° West 369 425 15,000 -1,594 Descending FlightAware ADS-B
11:54PM 60.8508 -148.9810 286° West 365 420 14,200 -1,600 Descending FlightAware ADS-B
11:54PM 60.8645 -149.0759 286° West 358 412 13,400 -1,457 Descending FlightAware ADS-B
11:55PM 60.8834 -149.2048 289° West 346 398 12,500 -1,268 Descending FlightAware ADS-B
11:55PM 60.9017 -149.2982 294° West 334 384 11,900 -1,099 Descending FlightAware ADS-B
11:56PM 60.9257 -149.4126 293° West 317 365 11,200 -943 Descending FlightAware ADS-B
11:57PM 60.9423 -149.4917 294° West 305 351 10,800 -800 Descending FlightAware ADS-B
11:57PM 60.9585 -149.5691 293° West 288 331 10,400 -960 Descending FlightAware ADS-B
11:57PM 60.9687 -149.6183 293° West 288 331 10,000 -1,200 Descending FlightAware ADS-B (PCV2)
11:58PM 60.9769 -149.6579 293° West 282 325 9,700 -1,077 Descending FlightAware ADS-B (PCV2)
11:58PM 60.9893 -149.7176 294° West 276 318 9,300 -882 Descending FlightAware ADS-B
11:58PM 60.9947 -149.7390 303° West 273 314 9,200 -800 Descending FlightAware ADS-B
11:59PM 61.0117 -149.7789 318° Northwest 276 318 8,900 -900 Descending FlightAware ADS-B
11:59PM 61.0302 -149.8100 313° West 277 319 8,600 -1,000 Descending FlightAware ADS-B
11:59PM 61.0379 -149.8318 300° West 278 320 8,400 -581 Descending FlightAware ADS-B
11:59PM 61.0500 -149.8836 290° West 276 318 8,300 -649 Descending FlightAware ADS-B
12:00AM 61.0552 -149.9198 286° West 274 315 8,000 -1,355 Descending FlightAware ADS-B (PCV2)
12:00AM 61.0608 -149.9610 285° West 275 316 7,600 -1,800 Descending FlightAware ADS-B (PCV2)
12:00AM 61.0654 -149.9974 284° West 276 318 7,100 -1,692 Descending FlightAware ADS-B (PCV2)
12:01AM 61.0729 -150.0601 284° West 273 314 6,500 -1,500 Descending FlightAware ADS-B
12:01AM 61.0788 -150.1112 283° West 270 311 6,000 -1,833 Descending FlightAware ADS-B
12:01AM 61.0831 -150.1497 283° West 271 312 5,400 -1,935 Descending FlightAware ADS-B (PCV2)
12:01AM 61.0870 -150.1877 281° West 265 305 5,000 -1,000 Descending FlightAware ADS-B
12:02AM 61.0904 -150.2228 282° West 247 284 4,900 -600 Descending FlightAware ADS-B (PCV2)
12:02AM 61.0938 -150.2562 283° West 226 260 4,700 -800 Descending FlightAware ADS-B
12:02AM 61.0970 -150.2870 282° West 211 243 4,500 -600 Descending FlightAware ADS-B (PCV2)
12:02AM 61.0982 -150.2962 289° West 206 237 4,500  Level FlightAware ADS-B
12:02AM 61.1027 -150.3127 308° West 203 234 4,500  Level FlightAware ADS-B
12:03AM 61.1102 -150.3244 333° Northwest 201 231 4,500  Level FlightAware ADS-B
12:03AM 61.1148 -150.3273 347° North 198 228 4,500  Level FlightAware ADS-B (PCV2)
12:03AM 61.1191 -150.3286 354° North 197 227 4,500 -480 Level FlightAware ADS-B
12:03AM 61.1366 -150.3303 358° North 194 223 4,300 -900 Descending FlightAware ADS-B
12:03AM 61.1534 -150.3318 358° North 181 208 3,900 -1,241 Descending FlightAware ADS-B (PCV2)
12:04AM 61.1614 -150.3290 23° Northeast 176 203 3,700 -1,600 Descending FlightAware ADS-B
12:04AM 61.1659 -150.3230 39° Northeast 174 200 3,500 -1,800 Descending FlightAware ADS-B (PCV2)
12:04AM 61.1677 -150.3187 56° Northeast 172 198 3,400 -1,714 Descending FlightAware ADS-B
12:04AM 61.1698 -150.3019 93° East 172 198 3,100 -1,143 Descending FlightAware ADS-B (PCV2)
12:04AM 61.1679 -150.2870 106° East 165 190 3,000 -800 Descending FlightAware ADS-B
12:04AM 61.1656 -150.2554 96° East 163 188 2,700 -923 Descending FlightAware ADS-B (PCV2)
12:05AM 61.1647 -150.2250 88° East 162 186 2,400 -968 Descending FlightAware ADS-B
12:05AM 61.1652 -150.2083 85° East 164 189 2,200 -1,263 Descending FlightAware ADS-B (PCV2)
12:05AM 61.1658 -150.1958 85° East 163 188 2,000 -1,000 Descending FlightAware ADS-B (PCV2)
12:05AM 61.1671 -150.1622 88° East 156 180 1,700 -714 Descending FlightAware ADS-B
12:06AM 61.1673 -150.1353 90° East 152 175 1,500 -769 Descending FlightAware ADS-B
12:06AM 61.1676 -150.1060 89° East 157 181 1,200 -900 Descending FlightAware ADS-B
12:06AM 61.1678 -150.0752 90° East 155 178 900 -878 Descending FlightAware ADS-B
12:07AM 61.1678 -150.0444 90° East 151 174 600 -600 Descending FlightAware ADS-B
12:07AM 61.1678 -150.0177 90° East 104 120 500 -300 Descending FlightAware ADS-B